sensor_id;sensor_type;location;lat;lon;timestamp;temperature;humidity
5842;DHT22;2947;52.276;9.946;2023-08-24T00:02:06;18.30;1.00
5842;DHT22;2947;52.276;9.946;2023-08-24T00:04:32;18.40;1.00
5842;DHT22;2947;52.276;9.946;2023-08-24T00:06:59;18.80;99.90
5842;DHT22;2947;52.276;9.946;2023-08-24T00:09:25;18.40;99.90
5842;DHT22;2947;52.276;9.946;2023-08-24T00:11:52;18.40;96.70
5842;DHT22;2947;52.276;9.946;2023-08-24T00:14:18;18.20;1.00
5842;DHT22;2947;52.276;9.946;2023-08-24T00:16:44;16.40;99.90
5842;DHT22;2947;52.276;9.946;2023-08-24T00:19:10;18.10;99.90
5842;DHT22;2947;52.276;9.946;2023-08-24T00:21:35;18.10;99.90
5842;DHT22;2947;52.276;9.946;2023-08-24T00:24:01;17.90;99.90
5842;DHT22;2947;52.276;9.946;2023-08-24T00:26:27;17.90;99.90
5842;DHT22;2947;52.276;9.946;2023-08-24T00:28:52;17.90;99.90
5842;DHT22;2947;52.276;9.946;2023-08-24T00:31:18;18.20;1.00
5842;DHT22;2947;52.276;9.946;2023-08-24T00:33:44;17.80;1.00
5842;DHT22;2947;52.276;9.946;2023-08-24T00:36:10;18.60;1.00
5842;DHT22;2947;52.276;9.946;2023-08-24T00:38:35;17.90;1.00
5842;DHT22;2947;52.276;9.946;2023-08-24T00:41:02;17.80;1.00
5842;DHT22;2947;52.276;9.946;2023-08-24T00:43:28;17.90;1.00
5842;DHT22;2947;52.276;9.946;2023-08-24T00:45:55;17.90;1.00
5842;DHT22;2947;52.276;9.946;2023-08-24T00:48:22;17.90;1.00
5842;DHT22;2947;52.276;9.946;2023-08-24T00:50:54;18.90;1.00
5842;DHT22;2947;52.276;9.946;2023-08-24T00:53:21;18.00;1.00
5842;DHT22;2947;52.276;9.946;2023-08-24T00:55:48;18.10;1.00
5842;DHT22;2947;52.276;9.946;2023-08-24T00:58:14;18.10;1.00
5842;DHT22;2947;52.276;9.946;2023-08-24T01:00:40;18.10;99.90
5842;DHT22;2947;52.276;9.946;2023-08-24T01:03:06;18.10;99.90
5842;DHT22;2947;52.276;9.946;2023-08-24T01:05:32;16.40;1.00
5842;DHT22;2947;52.276;9.946;2023-08-24T01:07:57;18.10;99.90
5842;DHT22;2947;52.276;9.946;2023-08-24T01:10:24;18.10;99.90
5842;DHT22;2947;52.276;9.946;2023-08-24T01:13:00;18.10;99.90
5842;DHT22;2947;52.276;9.946;2023-08-24T01:15:55;18.90;99.90
5842;DHT22;2947;52.276;9.946;2023-08-24T01:18:25;18.10;99.90
5842;DHT22;2947;52.276;9.946;2023-08-24T01:20:53;18.50;99.90
5842;DHT22;2947;52.276;9.946;2023-08-24T01:26:19;18.00;99.90
5842;DHT22;2947;52.276;9.946;2023-08-24T01:28:46;18.00;99.90
5842;DHT22;2947;52.276;9.946;2023-08-24T01:31:16;18.90;99.90
5842;DHT22;2947;52.276;9.946;2023-08-24T01:33:45;17.90;99.90
5842;DHT22;2947;52.276;9.946;2023-08-24T01:36:13;17.90;99.90
5842;DHT22;2947;52.276;9.946;2023-08-24T01:38:42;17.90;99.90
5842;DHT22;2947;52.276;9.946;2023-08-24T01:41:21;17.90;99.90
5842;DHT22;2947;52.276;9.946;2023-08-24T01:43:52;17.90;99.90
5842;DHT22;2947;52.276;9.946;2023-08-24T01:46:21;17.80;1.00
5842;DHT22;2947;52.276;9.946;2023-08-24T01:48:48;17.70;1.00
5842;DHT22;2947;52.276;9.946;2023-08-24T01:51:14;17.70;1.00
5842;DHT22;2947;52.276;9.946;2023-08-24T01:53:40;18.60;1.00
5842;DHT22;2947;52.276;9.946;2023-08-24T01:56:15;17.80;1.00
5842;DHT22;2947;52.276;9.946;2023-08-24T01:58:41;17.70;99.90
5842;DHT22;2947;52.276;9.946;2023-08-24T02:01:08;17.80;99.90
5842;DHT22;2947;52.276;9.946;2023-08-24T02:03:34;17.80;99.90
5842;DHT22;2947;52.276;9.946;2023-08-24T02:06:00;17.80;99.90
5842;DHT22;2947;52.276;9.946;2023-08-24T02:08:25;17.80;99.90
5842;DHT22;2947;52.276;9.946;2023-08-24T02:10:51;17.80;99.90
5842;DHT22;2947;52.276;9.946;2023-08-24T02:13:17;17.80;99.90
5842;DHT22;2947;52.276;9.946;2023-08-24T02:15:43;19.50;99.90
5842;DHT22;2947;52.276;9.946;2023-08-24T02:18:09;18.70;99.90
5842;DHT22;2947;52.276;9.946;2023-08-24T02:20:35;17.80;99.90
5842;DHT22;2947;52.276;9.946;2023-08-24T02:23:03;17.80;99.90
5842;DHT22;2947;52.276;9.946;2023-08-24T02:25:29;17.70;1.00
5842;DHT22;2947;52.276;9.946;2023-08-24T02:27:55;16.80;1.00
5842;DHT22;2947;52.276;9.946;2023-08-24T02:30:20;17.70;1.00
5842;DHT22;2947;52.276;9.946;2023-08-24T02:32:46;17.70;1.00
5842;DHT22;2947;52.276;9.946;2023-08-24T02:35:12;17.60;1.00
5842;DHT22;2947;52.276;9.946;2023-08-24T02:37:38;17.40;1.00
5842;DHT22;2947;52.276;9.946;2023-08-24T02:40:04;17.40;1.00
5842;DHT22;2947;52.276;9.946;2023-08-24T02:42:31;17.40;1.00
5842;DHT22;2947;52.276;9.946;2023-08-24T02:44:58;17.40;1.00
5842;DHT22;2947;52.276;9.946;2023-08-24T02:47:23;17.20;36.60
5842;DHT22;2947;52.276;9.946;2023-08-24T02:49:49;15.80;72.90
5842;DHT22;2947;52.276;9.946;2023-08-24T02:52:15;17.10;99.90
5842;DHT22;2947;52.276;9.946;2023-08-24T02:54:40;17.00;99.90
5842;DHT22;2947;52.276;9.946;2023-08-24T02:57:06;17.10;99.90
5842;DHT22;2947;52.276;9.946;2023-08-24T02:59:32;17.80;99.90
5842;DHT22;2947;52.276;9.946;2023-08-24T03:01:57;17.20;80.70
5842;DHT22;2947;52.276;9.946;2023-08-24T03:04:23;17.20;99.90
5842;DHT22;2947;52.276;9.946;2023-08-24T03:06:49;17.10;99.90
5842;DHT22;2947;52.276;9.946;2023-08-24T03:09:15;17.00;99.90
5842;DHT22;2947;52.276;9.946;2023-08-24T03:11:41;17.00;99.90
5842;DHT22;2947;52.276;9.946;2023-08-24T03:14:06;17.00;99.90
5842;DHT22;2947;52.276;9.946;2023-08-24T03:16:32;17.10;91.00
5842;DHT22;2947;52.276;9.946;2023-08-24T03:18:58;17.10;47.40
5842;DHT22;2947;52.276;9.946;2023-08-24T03:21:24;17.10;34.00
5842;DHT22;2947;52.276;9.946;2023-08-24T03:23:49;17.10;12.80
5842;DHT22;2947;52.276;9.946;2023-08-24T03:26:15;17.10;18.60
5842;DHT22;2947;52.276;9.946;2023-08-24T03:28:42;17.10;45.50
5842;DHT22;2947;52.276;9.946;2023-08-24T03:31:08;17.10;17.60
5842;DHT22;2947;52.276;9.946;2023-08-24T03:33:34;18.00;1.00
5842;DHT22;2947;52.276;9.946;2023-08-24T03:36:01;17.10;1.00
5842;DHT22;2947;52.276;9.946;2023-08-24T03:38:28;17.10;1.00
5842;DHT22;2947;52.276;9.946;2023-08-24T03:41:03;17.10;1.00
5842;DHT22;2947;52.276;9.946;2023-08-24T03:43:33;17.10;30.10
5842;DHT22;2947;52.276;9.946;2023-08-24T03:46:00;17.00;81.10
5842;DHT22;2947;52.276;9.946;2023-08-24T03:48:27;16.80;99.90
5842;DHT22;2947;52.276;9.946;2023-08-24T03:50:56;16.70;99.90
5842;DHT22;2947;52.276;9.946;2023-08-24T03:53:23;16.60;99.90
5842;DHT22;2947;52.276;9.946;2023-08-24T03:55:53;16.50;99.90
5842;DHT22;2947;52.276;9.946;2023-08-24T03:58:19;16.40;99.90
5842;DHT22;2947;52.276;9.946;2023-08-24T04:00:45;16.40;99.90
5842;DHT22;2947;52.276;9.946;2023-08-24T04:03:11;17.80;99.90
5842;DHT22;2947;52.276;9.946;2023-08-24T04:05:37;16.30;99.90
5842;DHT22;2947;52.276;9.946;2023-08-24T04:08:03;16.30;99.90
5842;DHT22;2947;52.276;9.946;2023-08-24T04:10:29;16.30;99.90
5842;DHT22;2947;52.276;9.946;2023-08-24T04:12:55;16.40;99.90
5842;DHT22;2947;52.276;9.946;2023-08-24T04:15:21;16.40;99.90
5842;DHT22;2947;52.276;9.946;2023-08-24T04:17:48;16.50;99.90
5842;DHT22;2947;52.276;9.946;2023-08-24T04:20:14;16.60;99.90
5842;DHT22;2947;52.276;9.946;2023-08-24T04:22:41;16.60;99.90
5842;DHT22;2947;52.276;9.946;2023-08-24T04:25:07;16.60;99.90
5842;DHT22;2947;52.276;9.946;2023-08-24T04:27:33;16.60;99.90
5842;DHT22;2947;52.276;9.946;2023-08-24T04:29:59;17.40;99.90
5842;DHT22;2947;52.276;9.946;2023-08-24T04:32:26;16.50;99.90
5842;DHT22;2947;52.276;9.946;2023-08-24T04:34:53;16.90;99.90
5842;DHT22;2947;52.276;9.946;2023-08-24T04:37:18;16.50;99.90
5842;DHT22;2947;52.276;9.946;2023-08-24T04:39:44;14.70;99.90
5842;DHT22;2947;52.276;9.946;2023-08-24T04:42:10;16.60;99.90
5842;DHT22;2947;52.276;9.946;2023-08-24T04:44:35;16.60;99.90
5842;DHT22;2947;52.276;9.946;2023-08-24T04:47:01;16.60;99.90
5842;DHT22;2947;52.276;9.946;2023-08-24T04:49:26;16.70;99.90
5842;DHT22;2947;52.276;9.946;2023-08-24T04:51:53;16.70;99.90
5842;DHT22;2947;52.276;9.946;2023-08-24T04:54:19;16.70;99.90
5842;DHT22;2947;52.276;9.946;2023-08-24T04:56:45;16.70;99.90
5842;DHT22;2947;52.276;9.946;2023-08-24T04:59:10;16.70;99.90
5842;DHT22;2947;52.276;9.946;2023-08-24T05:01:36;16.70;99.90
5842;DHT22;2947;52.276;9.946;2023-08-24T05:04:02;16.80;99.90
5842;DHT22;2947;52.276;9.946;2023-08-24T05:06:28;16.80;99.90
5842;DHT22;2947;52.276;9.946;2023-08-24T05:08:54;16.80;99.90
5842;DHT22;2947;52.276;9.946;2023-08-24T05:11:22;16.90;99.90
5842;DHT22;2947;52.276;9.946;2023-08-24T05:13:49;17.50;99.90
5842;DHT22;2947;52.276;9.946;2023-08-24T05:16:15;17.00;99.90
5842;DHT22;2947;52.276;9.946;2023-08-24T05:18:41;17.20;99.90
5842;DHT22;2947;52.276;9.946;2023-08-24T05:21:07;17.20;99.90
5842;DHT22;2947;52.276;9.946;2023-08-24T05:23:33;18.20;99.90
5842;DHT22;2947;52.276;9.946;2023-08-24T05:26:00;17.50;99.90
5842;DHT22;2947;52.276;9.946;2023-08-24T05:28:28;17.40;99.90
5842;DHT22;2947;52.276;9.946;2023-08-24T05:30:55;17.40;99.90
5842;DHT22;2947;52.276;9.946;2023-08-24T05:33:21;17.40;99.90
5842;DHT22;2947;52.276;9.946;2023-08-24T05:35:48;17.40;99.90
5842;DHT22;2947;52.276;9.946;2023-08-24T05:38:15;17.50;99.90
5842;DHT22;2947;52.276;9.946;2023-08-24T05:40:41;17.60;99.90
5842;DHT22;2947;52.276;9.946;2023-08-24T05:43:09;18.30;99.90
5842;DHT22;2947;52.276;9.946;2023-08-24T05:45:37;17.70;99.90
5842;DHT22;2947;52.276;9.946;2023-08-24T05:48:05;17.60;99.90
5842;DHT22;2947;52.276;9.946;2023-08-24T05:50:31;17.60;99.90
5842;DHT22;2947;52.276;9.946;2023-08-24T05:52:57;17.70;99.90
5842;DHT22;2947;52.276;9.946;2023-08-24T05:55:22;17.70;99.90
5842;DHT22;2947;52.276;9.946;2023-08-24T05:57:48;17.60;99.90
5842;DHT22;2947;52.276;9.946;2023-08-24T06:00:14;18.40;99.90
5842;DHT22;2947;52.276;9.946;2023-08-24T06:02:40;17.70;99.90
5842;DHT22;2947;52.276;9.946;2023-08-24T06:05:07;17.80;99.90
5842;DHT22;2947;52.276;9.946;2023-08-24T06:07:33;17.80;99.90
5842;DHT22;2947;52.276;9.946;2023-08-24T06:09:59;18.00;99.90
5842;DHT22;2947;52.276;9.946;2023-08-24T06:12:25;18.00;99.90
5842;DHT22;2947;52.276;9.946;2023-08-24T06:14:51;17.00;99.90
5842;DHT22;2947;52.276;9.946;2023-08-24T06:17:16;18.10;99.90
5842;DHT22;2947;52.276;9.946;2023-08-24T06:19:42;18.10;99.90
5842;DHT22;2947;52.276;9.946;2023-08-24T06:22:08;18.20;99.90
5842;DHT22;2947;52.276;9.946;2023-08-24T06:24:34;18.20;99.90
5842;DHT22;2947;52.276;9.946;2023-08-24T06:27:00;18.20;99.90
5842;DHT22;2947;52.276;9.946;2023-08-24T06:29:28;18.30;99.90
5842;DHT22;2947;52.276;9.946;2023-08-24T06:31:54;18.40;99.90
5842;DHT22;2947;52.276;9.946;2023-08-24T06:34:20;18.30;99.90
5842;DHT22;2947;52.276;9.946;2023-08-24T06:36:46;17.80;99.90
5842;DHT22;2947;52.276;9.946;2023-08-24T06:39:13;18.30;99.90
5842;DHT22;2947;52.276;9.946;2023-08-24T06:41:38;18.30;99.90
5842;DHT22;2947;52.276;9.946;2023-08-24T06:44:04;19.10;99.90
5842;DHT22;2947;52.276;9.946;2023-08-24T06:46:31;18.90;99.90
5842;DHT22;2947;52.276;9.946;2023-08-24T06:48:56;18.40;99.90
5842;DHT22;2947;52.276;9.946;2023-08-24T06:51:22;18.40;99.90
5842;DHT22;2947;52.276;9.946;2023-08-24T06:53:48;18.40;99.90
5842;DHT22;2947;52.276;9.946;2023-08-24T06:56:14;18.40;99.90
5842;DHT22;2947;52.276;9.946;2023-08-24T06:58:40;18.40;99.90
5842;DHT22;2947;52.276;9.946;2023-08-24T07:01:06;18.40;99.90
5842;DHT22;2947;52.276;9.946;2023-08-24T07:03:32;18.50;99.90
5842;DHT22;2947;52.276;9.946;2023-08-24T07:05:59;18.60;99.90
5842;DHT22;2947;52.276;9.946;2023-08-24T07:08:25;18.60;99.90
5842;DHT22;2947;52.276;9.946;2023-08-24T07:10:50;18.50;99.90
5842;DHT22;2947;52.276;9.946;2023-08-24T07:13:16;18.80;99.90
5842;DHT22;2947;52.276;9.946;2023-08-24T07:15:42;18.60;99.90
5842;DHT22;2947;52.276;9.946;2023-08-24T07:18:08;18.70;99.90
5842;DHT22;2947;52.276;9.946;2023-08-24T07:20:34;18.70;99.90
5842;DHT22;2947;52.276;9.946;2023-08-24T07:23:01;18.80;99.90
5842;DHT22;2947;52.276;9.946;2023-08-24T07:25:26;19.00;99.90
5842;DHT22;2947;52.276;9.946;2023-08-24T07:27:55;19.10;99.90
5842;DHT22;2947;52.276;9.946;2023-08-24T07:30:26;19.20;99.90
5842;DHT22;2947;52.276;9.946;2023-08-24T07:32:53;19.40;22.40
5842;DHT22;2947;52.276;9.946;2023-08-24T07:35:19;19.50;6.20
5842;DHT22;2947;52.276;9.946;2023-08-24T07:37:47;19.60;1.00
5842;DHT22;2947;52.276;9.946;2023-08-24T07:40:13;19.70;1.00
5842;DHT22;2947;52.276;9.946;2023-08-24T07:42:43;19.80;1.00
5842;DHT22;2947;52.276;9.946;2023-08-24T07:45:13;20.10;1.00
5842;DHT22;2947;52.276;9.946;2023-08-24T07:47:39;20.20;99.90
5842;DHT22;2947;52.276;9.946;2023-08-24T07:50:06;20.90;99.90
5842;DHT22;2947;52.276;9.946;2023-08-24T07:52:33;20.50;99.90
5842;DHT22;2947;52.276;9.946;2023-08-24T07:54:58;20.70;1.00
5842;DHT22;2947;52.276;9.946;2023-08-24T07:57:28;21.10;1.00
5842;DHT22;2947;52.276;9.946;2023-08-24T07:59:54;21.00;99.90
5842;DHT22;2947;52.276;9.946;2023-08-24T08:02:19;21.10;99.90
5842;DHT22;2947;52.276;9.946;2023-08-24T08:04:46;21.70;1.00
5842;DHT22;2947;52.276;9.946;2023-08-24T08:07:11;21.30;1.00
5842;DHT22;2947;52.276;9.946;2023-08-24T08:09:37;21.40;1.00
5842;DHT22;2947;52.276;9.946;2023-08-24T08:12:03;21.50;99.90
5842;DHT22;2947;52.276;9.946;2023-08-24T08:14:29;21.70;99.90
5842;DHT22;2947;52.276;9.946;2023-08-24T08:16:58;21.80;99.90
5842;DHT22;2947;52.276;9.946;2023-08-24T08:19:24;21.90;99.90
5842;DHT22;2947;52.276;9.946;2023-08-24T08:21:52;22.30;99.90
5842;DHT22;2947;52.276;9.946;2023-08-24T08:24:17;22.20;1.00
5842;DHT22;2947;52.276;9.946;2023-08-24T08:26:43;22.30;99.90
5842;DHT22;2947;52.276;9.946;2023-08-24T08:29:09;22.50;99.90
5842;DHT22;2947;52.276;9.946;2023-08-24T08:31:34;22.60;65.50
5842;DHT22;2947;52.276;9.946;2023-08-24T08:34:01;22.90;99.90
5842;DHT22;2947;52.276;9.946;2023-08-24T08:36:29;23.00;91.30
5842;DHT22;2947;52.276;9.946;2023-08-24T08:38:58;23.10;1.00
5842;DHT22;2947;52.276;9.946;2023-08-24T08:41:27;23.30;72.60
5842;DHT22;2947;52.276;9.946;2023-08-24T08:43:53;23.40;1.00
5842;DHT22;2947;52.276;9.946;2023-08-24T08:46:20;23.60;1.00
5842;DHT22;2947;52.276;9.946;2023-08-24T08:48:47;23.70;99.90
5842;DHT22;2947;52.276;9.946;2023-08-24T08:51:16;23.90;99.90
5842;DHT22;2947;52.276;9.946;2023-08-24T08:53:43;24.00;99.90
5842;DHT22;2947;52.276;9.946;2023-08-24T08:56:09;24.70;99.90
5842;DHT22;2947;52.276;9.946;2023-08-24T08:58:35;25.00;1.00
5842;DHT22;2947;52.276;9.946;2023-08-24T09:01:04;24.40;1.00
5842;DHT22;2947;52.276;9.946;2023-08-24T09:03:31;24.70;1.00
5842;DHT22;2947;52.276;9.946;2023-08-24T09:06:00;24.90;1.00
5842;DHT22;2947;52.276;9.946;2023-08-24T09:08:26;25.10;1.00
5842;DHT22;2947;52.276;9.946;2023-08-24T09:10:53;25.10;1.00
5842;DHT22;2947;52.276;9.946;2023-08-24T09:13:20;25.20;1.00
5842;DHT22;2947;52.276;9.946;2023-08-24T09:15:46;25.30;1.00
5842;DHT22;2947;52.276;9.946;2023-08-24T09:18:12;25.40;1.00
5842;DHT22;2947;52.276;9.946;2023-08-24T09:20:38;25.60;1.00
5842;DHT22;2947;52.276;9.946;2023-08-24T09:23:03;25.70;1.00
5842;DHT22;2947;52.276;9.946;2023-08-24T09:25:29;25.90;1.00
5842;DHT22;2947;52.276;9.946;2023-08-24T09:30:34;26.20;99.90
5842;DHT22;2947;52.276;9.946;2023-08-24T09:33:02;26.40;99.90
5842;DHT22;2947;52.276;9.946;2023-08-24T09:35:28;26.80;99.90
5842;DHT22;2947;52.276;9.946;2023-08-24T09:37:54;26.60;99.90
5842;DHT22;2947;52.276;9.946;2023-08-24T09:40:24;26.60;99.90
5842;DHT22;2947;52.276;9.946;2023-08-24T09:42:51;27.60;99.90
5842;DHT22;2947;52.276;9.946;2023-08-24T09:45:17;26.90;99.90
5842;DHT22;2947;52.276;9.946;2023-08-24T09:47:49;27.10;99.90
5842;DHT22;2947;52.276;9.946;2023-08-24T09:50:16;27.20;99.90
5842;DHT22;2947;52.276;9.946;2023-08-24T09:52:42;27.30;99.90
5842;DHT22;2947;52.276;9.946;2023-08-24T09:55:09;27.50;99.90
5842;DHT22;2947;52.276;9.946;2023-08-24T09:57:38;27.50;99.90
5842;DHT22;2947;52.276;9.946;2023-08-24T10:00:09;27.60;99.90
5842;DHT22;2947;52.276;9.946;2023-08-24T10:02:50;28.10;99.90
5842;DHT22;2947;52.276;9.946;2023-08-24T10:05:20;27.80;99.90
5842;DHT22;2947;52.276;9.946;2023-08-24T10:07:52;27.90;99.90
5842;DHT22;2947;52.276;9.946;2023-08-24T10:10:25;28.10;99.90
5842;DHT22;2947;52.276;9.946;2023-08-24T10:12:52;28.20;99.90
5842;DHT22;2947;52.276;9.946;2023-08-24T10:15:24;28.50;99.90
5842;DHT22;2947;52.276;9.946;2023-08-24T10:17:52;28.30;99.90
5842;DHT22;2947;52.276;9.946;2023-08-24T10:20:22;28.60;99.90
5842;DHT22;2947;52.276;9.946;2023-08-24T10:22:49;28.70;99.90
5842;DHT22;2947;52.276;9.946;2023-08-24T10:25:16;28.60;99.90
5842;DHT22;2947;52.276;9.946;2023-08-24T10:27:45;28.70;99.90
5842;DHT22;2947;52.276;9.946;2023-08-24T10:30:13;28.70;99.90
5842;DHT22;2947;52.276;9.946;2023-08-24T10:32:40;28.80;99.90
5842;DHT22;2947;52.276;9.946;2023-08-24T10:35:07;27.60;99.90
5842;DHT22;2947;52.276;9.946;2023-08-24T10:37:33;29.00;99.90
5842;DHT22;2947;52.276;9.946;2023-08-24T10:40:00;29.60;99.90
5842;DHT22;2947;52.276;9.946;2023-08-24T10:42:26;29.00;99.90
5842;DHT22;2947;52.276;9.946;2023-08-24T10:44:52;29.30;99.90
5842;DHT22;2947;52.276;9.946;2023-08-24T10:47:19;29.10;99.90
5842;DHT22;2947;52.276;9.946;2023-08-24T10:52:32;29.30;99.90
5842;DHT22;2947;52.276;9.946;2023-08-24T10:55:03;29.20;99.90
5842;DHT22;2947;52.276;9.946;2023-08-24T10:57:39;29.40;99.90
5842;DHT22;2947;52.276;9.946;2023-08-24T11:00:11;29.40;99.90
5842;DHT22;2947;52.276;9.946;2023-08-24T11:02:46;29.30;99.90
5842;DHT22;2947;52.276;9.946;2023-08-24T11:05:18;29.50;99.90
5842;DHT22;2947;52.276;9.946;2023-08-24T11:07:56;29.70;99.90
5842;DHT22;2947;52.276;9.946;2023-08-24T11:10:25;29.60;99.90
5842;DHT22;2947;52.276;9.946;2023-08-24T11:13:04;29.70;99.90
5842;DHT22;2947;52.276;9.946;2023-08-24T11:15:49;29.90;99.90
5842;DHT22;2947;52.276;9.946;2023-08-24T11:18:24;29.90;99.90
5842;DHT22;2947;52.276;9.946;2023-08-24T11:20:55;30.00;99.90
5842;DHT22;2947;52.276;9.946;2023-08-24T11:23:23;30.10;99.90
5842;DHT22;2947;52.276;9.946;2023-08-24T11:25:51;31.10;99.90
5842;DHT22;2947;52.276;9.946;2023-08-24T11:28:26;30.00;99.90
5842;DHT22;2947;52.276;9.946;2023-08-24T11:30:53;30.10;99.90
5842;DHT22;2947;52.276;9.946;2023-08-24T11:33:34;30.20;99.90
5842;DHT22;2947;52.276;9.946;2023-08-24T11:36:02;30.30;99.90
5842;DHT22;2947;52.276;9.946;2023-08-24T11:38:42;30.30;99.90
5842;DHT22;2947;52.276;9.946;2023-08-24T11:41:15;30.90;99.90
5842;DHT22;2947;52.276;9.946;2023-08-24T11:43:46;30.50;99.90
5842;DHT22;2947;52.276;9.946;2023-08-24T11:46:15;30.60;99.90
5842;DHT22;2947;52.276;9.946;2023-08-24T11:48:41;30.70;99.90
5842;DHT22;2947;52.276;9.946;2023-08-24T11:51:11;30.80;99.90
5842;DHT22;2947;52.276;9.946;2023-08-24T11:53:42;30.70;99.90
5842;DHT22;2947;52.276;9.946;2023-08-24T11:56:09;30.90;99.90
5842;DHT22;2947;52.276;9.946;2023-08-24T11:58:43;31.00;99.90
5842;DHT22;2947;52.276;9.946;2023-08-24T12:01:10;31.20;99.90
5842;DHT22;2947;52.276;9.946;2023-08-24T12:03:37;31.30;99.90
5842;DHT22;2947;52.276;9.946;2023-08-24T12:06:15;31.20;99.90
5842;DHT22;2947;52.276;9.946;2023-08-24T12:08:45;31.30;99.90
5842;DHT22;2947;52.276;9.946;2023-08-24T12:11:19;32.20;99.90
5842;DHT22;2947;52.276;9.946;2023-08-24T12:13:48;31.50;99.90
5842;DHT22;2947;52.276;9.946;2023-08-24T12:16:19;31.70;99.90
5842;DHT22;2947;52.276;9.946;2023-08-24T12:18:59;31.60;99.90
5842;DHT22;2947;52.276;9.946;2023-08-24T12:21:26;31.70;99.90
5842;DHT22;2947;52.276;9.946;2023-08-24T12:23:56;31.70;99.90
5842;DHT22;2947;52.276;9.946;2023-08-24T12:26:23;31.70;99.90
5842;DHT22;2947;52.276;9.946;2023-08-24T12:28:52;31.70;99.90
5842;DHT22;2947;52.276;9.946;2023-08-24T12:31:19;31.70;99.90
5842;DHT22;2947;52.276;9.946;2023-08-24T12:33:45;31.70;99.90
5842;DHT22;2947;52.276;9.946;2023-08-24T12:36:11;31.70;99.90
5842;DHT22;2947;52.276;9.946;2023-08-24T12:38:37;31.70;99.90
5842;DHT22;2947;52.276;9.946;2023-08-24T12:41:04;31.60;99.90
5842;DHT22;2947;52.276;9.946;2023-08-24T12:43:29;31.80;99.90
5842;DHT22;2947;52.276;9.946;2023-08-24T12:45:55;31.80;99.90
5842;DHT22;2947;52.276;9.946;2023-08-24T12:48:21;31.90;99.90
5842;DHT22;2947;52.276;9.946;2023-08-24T12:50:47;31.80;99.90
5842;DHT22;2947;52.276;9.946;2023-08-24T12:53:12;31.70;99.90
5842;DHT22;2947;52.276;9.946;2023-08-24T12:55:39;31.60;99.90
5842;DHT22;2947;52.276;9.946;2023-08-24T12:58:06;32.10;99.90
5842;DHT22;2947;52.276;9.946;2023-08-24T13:00:32;32.40;99.90
5842;DHT22;2947;52.276;9.946;2023-08-24T13:02:57;31.60;99.90
5842;DHT22;2947;52.276;9.946;2023-08-24T13:05:23;31.60;99.90
5842;DHT22;2947;52.276;9.946;2023-08-24T13:07:49;31.50;99.90
5842;DHT22;2947;52.276;9.946;2023-08-24T13:10:16;31.60;99.90
5842;DHT22;2947;52.276;9.946;2023-08-24T13:12:42;31.50;99.90
5842;DHT22;2947;52.276;9.946;2023-08-24T13:15:08;31.40;99.90
5842;DHT22;2947;52.276;9.946;2023-08-24T13:17:35;31.40;99.90
5842;DHT22;2947;52.276;9.946;2023-08-24T13:20:00;31.30;99.90
5842;DHT22;2947;52.276;9.946;2023-08-24T13:22:26;31.20;99.90
5842;DHT22;2947;52.276;9.946;2023-08-24T13:24:52;31.10;99.90
5842;DHT22;2947;52.276;9.946;2023-08-24T13:27:17;31.10;99.90
5842;DHT22;2947;52.276;9.946;2023-08-24T13:29:43;31.10;99.90
5842;DHT22;2947;52.276;9.946;2023-08-24T13:32:09;30.90;99.90
5842;DHT22;2947;52.276;9.946;2023-08-24T13:34:36;30.90;99.90
5842;DHT22;2947;52.276;9.946;2023-08-24T13:37:02;30.70;99.90
5842;DHT22;2947;52.276;9.946;2023-08-24T13:39:28;30.70;99.90
5842;DHT22;2947;52.276;9.946;2023-08-24T13:41:54;30.80;99.90
5842;DHT22;2947;52.276;9.946;2023-08-24T13:44:21;30.70;99.90
5842;DHT22;2947;52.276;9.946;2023-08-24T13:46:47;30.60;99.90
5842;DHT22;2947;52.276;9.946;2023-08-24T13:49:13;30.60;99.90
5842;DHT22;2947;52.276;9.946;2023-08-24T13:51:38;30.40;99.90
5842;DHT22;2947;52.276;9.946;2023-08-24T13:54:18;30.30;99.90
5842;DHT22;2947;52.276;9.946;2023-08-24T13:56:45;30.30;99.90
5842;DHT22;2947;52.276;9.946;2023-08-24T13:59:13;30.30;99.90
5842;DHT22;2947;52.276;9.946;2023-08-24T14:01:39;30.20;99.90
5842;DHT22;2947;52.276;9.946;2023-08-24T14:04:06;30.20;99.90
5842;DHT22;2947;52.276;9.946;2023-08-24T14:06:33;30.00;99.90
5842;DHT22;2947;52.276;9.946;2023-08-24T14:09:02;30.00;99.90
5842;DHT22;2947;52.276;9.946;2023-08-24T14:11:28;30.00;99.90
5842;DHT22;2947;52.276;9.946;2023-08-24T14:13:54;30.00;99.90
5842;DHT22;2947;52.276;9.946;2023-08-24T14:16:20;30.70;99.90
5842;DHT22;2947;52.276;9.946;2023-08-24T14:18:46;29.90;99.90
5842;DHT22;2947;52.276;9.946;2023-08-24T14:21:12;29.80;99.90
5842;DHT22;2947;52.276;9.946;2023-08-24T14:23:39;29.70;99.90
5842;DHT22;2947;52.276;9.946;2023-08-24T14:26:05;29.70;99.90
5842;DHT22;2947;52.276;9.946;2023-08-24T14:28:54;29.70;99.90
5842;DHT22;2947;52.276;9.946;2023-08-24T14:31:26;29.60;99.90
5842;DHT22;2947;52.276;9.946;2023-08-24T14:33:52;29.70;99.90
5842;DHT22;2947;52.276;9.946;2023-08-24T14:36:19;29.70;99.90
5842;DHT22;2947;52.276;9.946;2023-08-24T14:38:48;29.70;99.90
5842;DHT22;2947;52.276;9.946;2023-08-24T14:41:15;29.60;99.90
5842;DHT22;2947;52.276;9.946;2023-08-24T14:43:41;29.60;99.90
5842;DHT22;2947;52.276;9.946;2023-08-24T14:46:07;30.10;99.90
5842;DHT22;2947;52.276;9.946;2023-08-24T14:48:34;29.50;99.90
5842;DHT22;2947;52.276;9.946;2023-08-24T14:50:59;29.50;99.90
5842;DHT22;2947;52.276;9.946;2023-08-24T14:53:26;29.60;99.90
5842;DHT22;2947;52.276;9.946;2023-08-24T14:55:56;29.50;99.90
5842;DHT22;2947;52.276;9.946;2023-08-24T14:58:25;29.50;99.90
5842;DHT22;2947;52.276;9.946;2023-08-24T15:00:53;29.40;99.90
5842;DHT22;2947;52.276;9.946;2023-08-24T15:03:21;29.40;99.90
5842;DHT22;2947;52.276;9.946;2023-08-24T15:06:00;29.30;99.90
5842;DHT22;2947;52.276;9.946;2023-08-24T15:08:29;29.30;99.90
5842;DHT22;2947;52.276;9.946;2023-08-24T15:10:56;29.20;99.90
5842;DHT22;2947;52.276;9.946;2023-08-24T15:13:28;29.10;99.90
5842;DHT22;2947;52.276;9.946;2023-08-24T15:15:55;29.00;99.90
5842;DHT22;2947;52.276;9.946;2023-08-24T15:18:23;29.00;99.90
5842;DHT22;2947;52.276;9.946;2023-08-24T15:20:49;28.90;99.90
5842;DHT22;2947;52.276;9.946;2023-08-24T15:23:28;29.50;99.90
5842;DHT22;2947;52.276;9.946;2023-08-24T15:25:57;28.90;99.90
5842;DHT22;2947;52.276;9.946;2023-08-24T15:28:24;28.90;99.90
5842;DHT22;2947;52.276;9.946;2023-08-24T15:30:50;28.90;99.90
5842;DHT22;2947;52.276;9.946;2023-08-24T15:33:17;28.80;99.90
5842;DHT22;2947;52.276;9.946;2023-08-24T15:35:44;28.70;99.90
5842;DHT22;2947;52.276;9.946;2023-08-24T15:38:10;28.70;99.90
5842;DHT22;2947;52.276;9.946;2023-08-24T15:40:36;28.70;99.90
5842;DHT22;2947;52.276;9.946;2023-08-24T15:43:03;28.80;99.90
5842;DHT22;2947;52.276;9.946;2023-08-24T15:45:30;28.70;99.90
5842;DHT22;2947;52.276;9.946;2023-08-24T15:47:57;28.70;99.90
5842;DHT22;2947;52.276;9.946;2023-08-24T15:50:24;28.70;99.90
5842;DHT22;2947;52.276;9.946;2023-08-24T15:52:50;28.70;99.90
5842;DHT22;2947;52.276;9.946;2023-08-24T15:55:15;28.70;99.90
5842;DHT22;2947;52.276;9.946;2023-08-24T15:57:41;28.70;99.90
5842;DHT22;2947;52.276;9.946;2023-08-24T16:00:07;28.70;99.90
5842;DHT22;2947;52.276;9.946;2023-08-24T16:02:39;28.70;99.90
5842;DHT22;2947;52.276;9.946;2023-08-24T16:05:05;28.70;99.90
5842;DHT22;2947;52.276;9.946;2023-08-24T16:07:31;28.70;99.90
5842;DHT22;2947;52.276;9.946;2023-08-24T16:09:57;27.50;99.90
5842;DHT22;2947;52.276;9.946;2023-08-24T16:12:23;28.60;99.90
5842;DHT22;2947;52.276;9.946;2023-08-24T16:14:49;28.60;99.90